sensor_id;sensor_type;location;lat;lon;timestamp;P1;durP1;ratioP1;P2;durP2;ratioP2
23434;SDS011;11890;45.380;11.028;2023-02-01T00:01:10;59.72;;;31.25;;
23434;SDS011;11890;45.380;11.028;2023-02-01T00:03:38;61.45;;;30.48;;
23434;SDS011;11890;45.380;11.028;2023-02-01T00:06:06;62.40;;;30.92;;
23434;SDS011;11890;45.380;11.028;2023-02-01T00:08:34;62.05;;;30.27;;
23434;SDS011;11890;45.380;11.028;2023-02-01T00:11:08;54.75;;;29.20;;
23434;SDS011;11890;45.380;11.028;2023-02-01T00:13:38;58.42;;;27.92;;
23434;SDS011;11890;45.380;11.028;2023-02-01T00:16:16;59.22;;;29.10;;
23434;SDS011;11890;45.380;11.028;2023-02-01T00:18:45;62.05;;;31.17;;
23434;SDS011;11890;45.380;11.028;2023-02-01T00:21:14;59.78;;;28.73;;
23434;SDS011;11890;45.380;11.028;2023-02-01T00:23:42;55.63;;;28.73;;
23434;SDS011;11890;45.380;11.028;2023-02-01T00:26:15;63.63;;;30.45;;
23434;SDS011;11890;45.380;11.028;2023-02-01T00:28:44;56.97;;;28.95;;
23434;SDS011;11890;45.380;11.028;2023-02-01T00:31:12;58.53;;;28.52;;
23434;SDS011;11890;45.380;11.028;2023-02-01T00:33:40;53.25;;;27.92;;
23434;SDS011;11890;45.380;11.028;2023-02-01T00:36:08;58.05;;;28.30;;
23434;SDS011;11890;45.380;11.028;2023-02-01T00:38:37;59.13;;;29.70;;
23434;SDS011;11890;45.380;11.028;2023-02-01T00:43:39;53.33;;;27.10;;
23434;SDS011;11890;45.380;11.028;2023-02-01T00:46:07;54.58;;;26.58;;
23434;SDS011;11890;45.380;11.028;2023-02-01T00:48:36;48.78;;;26.88;;
23434;SDS011;11890;45.380;11.028;2023-02-01T00:51:05;51.50;;;25.38;;
23434;SDS011;11890;45.380;11.028;2023-02-01T00:53:33;55.90;;;29.33;;
23434;SDS011;11890;45.380;11.028;2023-02-01T00:56:01;54.97;;;27.33;;
23434;SDS011;11890;45.380;11.028;2023-02-01T00:58:29;52.63;;;28.77;;
23434;SDS011;11890;45.380;11.028;2023-02-01T01:01:04;55.70;;;27.73;;
23434;SDS011;11890;45.380;11.028;2023-02-01T01:03:34;58.38;;;27.95;;
23434;SDS011;11890;45.380;11.028;2023-02-01T01:06:05;51.90;;;26.58;;
23434;SDS011;11890;45.380;11.028;2023-02-01T01:08:34;54.50;;;27.30;;
23434;SDS011;11890;45.380;11.028;2023-02-01T01:11:10;53.58;;;27.00;;
23434;SDS011;11890;45.380;11.028;2023-02-01T01:13:39;52.13;;;26.90;;
23434;SDS011;11890;45.380;11.028;2023-02-01T01:16:07;55.33;;;26.42;;
23434;SDS011;11890;45.380;11.028;2023-02-01T01:18:35;56.20;;;25.77;;
23434;SDS011;11890;45.380;11.028;2023-02-01T01:21:07;51.20;;;25.95;;
23434;SDS011;11890;45.380;11.028;2023-02-01T01:23:36;36.10;;;19.42;;
23434;SDS011;11890;45.380;11.028;2023-02-01T01:26:05;54.05;;;26.13;;
23434;SDS011;11890;45.380;11.028;2023-02-01T01:28:33;49.95;;;25.25;;
23434;SDS011;11890;45.380;11.028;2023-02-01T01:31:04;52.00;;;26.38;;
23434;SDS011;11890;45.380;11.028;2023-02-01T01:33:35;49.17;;;24.52;;
23434;SDS011;11890;45.380;11.028;2023-02-01T01:36:06;48.42;;;25.02;;
23434;SDS011;11890;45.380;11.028;2023-02-01T01:38:34;51.05;;;24.88;;
23434;SDS011;11890;45.380;11.028;2023-02-01T01:41:03;43.20;;;23.52;;
23434;SDS011;11890;45.380;11.028;2023-02-01T01:46:20;46.88;;;24.65;;
23434;SDS011;11890;45.380;11.028;2023-02-01T01:48:50;53.13;;;25.40;;
23434;SDS011;11890;45.380;11.028;2023-02-01T01:51:20;47.80;;;24.35;;
23434;SDS011;11890;45.380;11.028;2023-02-01T01:53:50;56.60;;;25.75;;
23434;SDS011;11890;45.380;11.028;2023-02-01T01:56:21;50.15;;;24.95;;
23434;SDS011;11890;45.380;11.028;2023-02-01T01:58:49;52.47;;;25.33;;
23434;SDS011;11890;45.380;11.028;2023-02-01T02:01:17;48.42;;;25.45;;
23434;SDS011;11890;45.380;11.028;2023-02-01T02:03:45;48.17;;;24.02;;
23434;SDS011;11890;45.380;11.028;2023-02-01T02:08:51;51.72;;;24.90;;
23434;SDS011;11890;45.380;11.028;2023-02-01T02:11:19;51.08;;;25.38;;
23434;SDS011;11890;45.380;11.028;2023-02-01T02:13:48;46.63;;;24.70;;
23434;SDS011;11890;45.380;11.028;2023-02-01T02:26:56;49.80;;;24.98;;
23434;SDS011;11890;45.380;11.028;2023-02-01T02:29:46;55.80;;;24.63;;
23434;SDS011;11890;45.380;11.028;2023-02-01T02:34:57;47.92;;;24.27;;
23434;SDS011;11890;45.380;11.028;2023-02-01T02:42:40;54.40;;;25.50;;
23434;SDS011;11890;45.380;11.028;2023-02-01T02:56:57;48.17;;;24.10;;
23434;SDS011;11890;45.380;11.028;2023-02-01T02:59:45;50.28;;;24.60;;
23434;SDS011;11890;45.380;11.028;2023-02-01T03:02:34;46.17;;;23.60;;
23434;SDS011;11890;45.380;11.028;2023-02-01T03:05:21;49.10;;;24.48;;
23434;SDS011;11890;45.380;11.028;2023-02-01T03:13:08;46.60;;;23.83;;
23434;SDS011;11890;45.380;11.028;2023-02-01T03:15:40;45.70;;;22.90;;
23434;SDS011;11890;45.380;11.028;2023-02-01T03:18:14;48.97;;;23.65;;
23434;SDS011;11890;45.380;11.028;2023-02-01T03:20:44;51.35;;;25.40;;
23434;SDS011;11890;45.380;11.028;2023-02-01T03:23:15;42.65;;;21.85;;
23434;SDS011;11890;45.380;11.028;2023-02-01T03:25:44;41.70;;;22.23;;
23434;SDS011;11890;45.380;11.028;2023-02-01T03:28:14;50.47;;;24.05;;
23434;SDS011;11890;45.380;11.028;2023-02-01T03:30:46;53.22;;;24.25;;
23434;SDS011;11890;45.380;11.028;2023-02-01T03:33:18;54.00;;;23.52;;
23434;SDS011;11890;45.380;11.028;2023-02-01T03:41:39;43.95;;;23.15;;
23434;SDS011;11890;45.380;11.028;2023-02-01T03:43:51;47.42;;;23.77;;
23434;SDS011;11890;45.380;11.028;2023-02-01T03:46:26;43.47;;;22.58;;
23434;SDS011;11890;45.380;11.028;2023-02-01T03:49:02;47.10;;;24.15;;
23434;SDS011;11890;45.380;11.028;2023-02-01T03:51:31;42.20;;;22.17;;
23434;SDS011;11890;45.380;11.028;2023-02-01T03:54:01;44.80;;;23.70;;
23434;SDS011;11890;45.380;11.028;2023-02-01T03:56:29;44.85;;;23.75;;
23434;SDS011;11890;45.380;11.028;2023-02-01T03:58:58;46.80;;;24.85;;
23434;SDS011;11890;45.380;11.028;2023-02-01T04:01:31;44.67;;;23.42;;
23434;SDS011;11890;45.380;11.028;2023-02-01T04:04:00;44.00;;;21.92;;
23434;SDS011;11890;45.380;11.028;2023-02-01T04:06:28;45.00;;;22.58;;
23434;SDS011;11890;45.380;11.028;2023-02-01T04:09:00;38.13;;;16.23;;
23434;SDS011;11890;45.380;11.028;2023-02-01T04:11:29;44.67;;;23.50;;
23434;SDS011;11890;45.380;11.028;2023-02-01T04:13:57;46.22;;;23.02;;
23434;SDS011;11890;45.380;11.028;2023-02-01T04:16:25;46.80;;;23.67;;
23434;SDS011;11890;45.380;11.028;2023-02-01T04:18:52;43.03;;;22.95;;
23434;SDS011;11890;45.380;11.028;2023-02-01T04:21:20;49.47;;;24.83;;
23434;SDS011;11890;45.380;11.028;2023-02-01T04:23:48;47.75;;;24.60;;
23434;SDS011;11890;45.380;11.028;2023-02-01T04:26:16;48.50;;;22.52;;
23434;SDS011;11890;45.380;11.028;2023-02-01T04:28:46;45.70;;;24.38;;
23434;SDS011;11890;45.380;11.028;2023-02-01T04:31:15;47.05;;;24.80;;
23434;SDS011;11890;45.380;11.028;2023-02-01T04:33:43;45.65;;;24.13;;
23434;SDS011;11890;45.380;11.028;2023-02-01T04:36:11;45.78;;;22.70;;
23434;SDS011;11890;45.380;11.028;2023-02-01T04:38:39;52.90;;;25.45;;
23434;SDS011;11890;45.380;11.028;2023-02-01T04:41:08;54.25;;;26.33;;
23434;SDS011;11890;45.380;11.028;2023-02-01T04:43:36;56.45;;;27.65;;
23434;SDS011;11890;45.380;11.028;2023-02-01T04:46:03;58.33;;;27.90;;
23434;SDS011;11890;45.380;11.028;2023-02-01T04:48:31;52.78;;;26.90;;
23434;SDS011;11890;45.380;11.028;2023-02-01T04:50:59;49.90;;;26.23;;
23434;SDS011;11890;45.380;11.028;2023-02-01T04:53:27;49.00;;;25.20;;
23434;SDS011;11890;45.380;11.028;2023-02-01T04:55:56;62.97;;;28.92;;
23434;SDS011;11890;45.380;11.028;2023-02-01T04:58:24;53.78;;;26.08;;
23434;SDS011;11890;45.380;11.028;2023-02-01T05:00:52;60.20;;;27.85;;
23434;SDS011;11890;45.380;11.028;2023-02-01T05:03:20;58.53;;;27.88;;
23434;SDS011;11890;45.380;11.028;2023-02-01T05:05:49;79.97;;;38.13;;
23434;SDS011;11890;45.380;11.028;2023-02-01T05:08:22;59.83;;;28.35;;
23434;SDS011;11890;45.380;11.028;2023-02-01T05:10:53;63.97;;;32.65;;
23434;SDS011;11890;45.380;11.028;2023-02-01T05:13:22;56.65;;;29.45;;
23434;SDS011;11890;45.380;11.028;2023-02-01T05:16:18;49.75;;;28.52;;
23434;SDS011;11890;45.380;11.028;2023-02-01T05:18:46;56.55;;;28.02;;
23434;SDS011;11890;45.380;11.028;2023-02-01T05:21:14;53.90;;;28.42;;
23434;SDS011;11890;45.380;11.028;2023-02-01T05:23:42;77.65;;;38.65;;
23434;SDS011;11890;45.380;11.028;2023-02-01T05:26:29;77.40;;;37.85;;
23434;SDS011;11890;45.380;11.028;2023-02-01T05:28:57;73.63;;;35.22;;
23434;SDS011;11890;45.380;11.028;2023-02-01T05:31:30;57.03;;;28.33;;
23434;SDS011;11890;45.380;11.028;2023-02-01T05:33:59;56.75;;;29.70;;
23434;SDS011;11890;45.380;11.028;2023-02-01T05:36:26;61.67;;;29.08;;
23434;SDS011;11890;45.380;11.028;2023-02-01T05:38:54;63.65;;;28.80;;
23434;SDS011;11890;45.380;11.028;2023-02-01T05:41:22;65.97;;;32.00;;
23434;SDS011;11890;45.380;11.028;2023-02-01T05:43:50;67.70;;;30.15;;
23434;SDS011;11890;45.380;11.028;2023-02-01T05:46:18;77.00;;;36.63;;
23434;SDS011;11890;45.380;11.028;2023-02-01T05:48:46;98.03;;;48.60;;
23434;SDS011;11890;45.380;11.028;2023-02-01T05:51:14;67.97;;;31.27;;
23434;SDS011;11890;45.380;11.028;2023-02-01T05:53:42;62.83;;;31.67;;
23434;SDS011;11890;45.380;11.028;2023-02-01T05:56:11;66.05;;;31.13;;
23434;SDS011;11890;45.380;11.028;2023-02-01T05:58:39;66.30;;;30.73;;
23434;SDS011;11890;45.380;11.028;2023-02-01T06:01:07;87.57;;;43.58;;
23434;SDS011;11890;45.380;11.028;2023-02-01T06:03:35;71.93;;;35.45;;
23434;SDS011;11890;45.380;11.028;2023-02-01T06:06:03;54.20;;;27.55;;
23434;SDS011;11890;45.380;11.028;2023-02-01T06:08:30;146.10;;;72.40;;
23434;SDS011;11890;45.380;11.028;2023-02-01T06:10:59;186.20;;;87.20;;
23434;SDS011;11890;45.380;11.028;2023-02-01T06:13:27;57.25;;;30.70;;
23434;SDS011;11890;45.380;11.028;2023-02-01T06:15:55;58.95;;;27.77;;
23434;SDS011;11890;45.380;11.028;2023-02-01T06:18:24;57.42;;;29.33;;
23434;SDS011;11890;45.380;11.028;2023-02-01T06:20:56;73.80;;;36.75;;
23434;SDS011;11890;45.380;11.028;2023-02-01T06:23:24;95.30;;;46.55;;
23434;SDS011;11890;45.380;11.028;2023-02-01T06:25:52;109.85;;;54.65;;
23434;SDS011;11890;45.380;11.028;2023-02-01T06:28:26;91.47;;;43.20;;
23434;SDS011;11890;45.380;11.028;2023-02-01T06:30:55;62.10;;;30.40;;
23434;SDS011;11890;45.380;11.028;2023-02-01T06:33:25;67.28;;;33.65;;
23434;SDS011;11890;45.380;11.028;2023-02-01T06:35:57;69.05;;;32.50;;
23434;SDS011;11890;45.380;11.028;2023-02-01T06:38:25;51.33;;;24.00;;
23434;SDS011;11890;45.380;11.028;2023-02-01T06:40:57;72.60;;;33.58;;
23434;SDS011;11890;45.380;11.028;2023-02-01T06:43:25;64.47;;;32.33;;
23434;SDS011;11890;45.380;11.028;2023-02-01T06:45:58;70.72;;;33.30;;
23434;SDS011;11890;45.380;11.028;2023-02-01T06:48:27;65.20;;;31.30;;
23434;SDS011;11890;45.380;11.028;2023-02-01T06:50:55;60.92;;;31.00;;
23434;SDS011;11890;45.380;11.028;2023-02-01T06:53:22;61.15;;;31.48;;
23434;SDS011;11890;45.380;11.028;2023-02-01T06:55:51;61.83;;;31.40;;
23434;SDS011;11890;45.380;11.028;2023-02-01T06:58:20;64.25;;;31.40;;
23434;SDS011;11890;45.380;11.028;2023-02-01T07:00:48;62.47;;;31.35;;
23434;SDS011;11890;45.380;11.028;2023-02-01T07:03:17;63.28;;;33.42;;
23434;SDS011;11890;45.380;11.028;2023-02-01T07:05:45;74.00;;;34.75;;
23434;SDS011;11890;45.380;11.028;2023-02-01T07:08:12;74.03;;;35.00;;
23434;SDS011;11890;45.380;11.028;2023-02-01T07:10:40;71.03;;;34.22;;
23434;SDS011;11890;45.380;11.028;2023-02-01T07:13:08;69.18;;;32.72;;
23434;SDS011;11890;45.380;11.028;2023-02-01T07:15:37;77.03;;;35.25;;
23434;SDS011;11890;45.380;11.028;2023-02-01T07:18:18;74.97;;;34.70;;
23434;SDS011;11890;45.380;11.028;2023-02-01T07:20:49;68.38;;;35.80;;
23434;SDS011;11890;45.380;11.028;2023-02-01T07:23:18;71.82;;;35.47;;
23434;SDS011;11890;45.380;11.028;2023-02-01T07:25:47;73.25;;;37.08;;
23434;SDS011;11890;45.380;11.028;2023-02-01T07:28:14;77.03;;;36.35;;
23434;SDS011;11890;45.380;11.028;2023-02-01T07:30:42;77.72;;;37.30;;
23434;SDS011;11890;45.380;11.028;2023-02-01T07:33:10;80.18;;;36.35;;
23434;SDS011;11890;45.380;11.028;2023-02-01T07:35:38;71.55;;;36.40;;
23434;SDS011;11890;45.380;11.028;2023-02-01T07:38:06;84.95;;;38.28;;
23434;SDS011;11890;45.380;11.028;2023-02-01T07:40:34;84.60;;;40.25;;
23434;SDS011;11890;45.380;11.028;2023-02-01T07:43:02;83.40;;;37.53;;
23434;SDS011;11890;45.380;11.028;2023-02-01T07:45:32;76.93;;;38.17;;
23434;SDS011;11890;45.380;11.028;2023-02-01T07:48:02;75.07;;;38.05;;
23434;SDS011;11890;45.380;11.028;2023-02-01T07:50:30;87.65;;;39.13;;
23434;SDS011;11890;45.380;11.028;2023-02-01T07:52:59;85.53;;;38.50;;
23434;SDS011;11890;45.380;11.028;2023-02-01T07:55:27;82.18;;;37.97;;
23434;SDS011;11890;45.380;11.028;2023-02-01T07:57:58;84.13;;;39.17;;
23434;SDS011;11890;45.380;11.028;2023-02-01T08:00:27;87.82;;;39.40;;
23434;SDS011;11890;45.380;11.028;2023-02-01T08:03:13;74.25;;;37.50;;
23434;SDS011;11890;45.380;11.028;2023-02-01T08:05:43;79.40;;;38.85;;
23434;SDS011;11890;45.380;11.028;2023-02-01T08:08:10;77.43;;;39.70;;
23434;SDS011;11890;45.380;11.028;2023-02-01T08:10:40;77.47;;;37.72;;
23434;SDS011;11890;45.380;11.028;2023-02-01T08:13:07;84.90;;;39.88;;
23434;SDS011;11890;45.380;11.028;2023-02-01T08:15:36;82.35;;;40.92;;
23434;SDS011;11890;45.380;11.028;2023-02-01T08:18:04;83.40;;;41.80;;
23434;SDS011;11890;45.380;11.028;2023-02-01T08:20:33;87.50;;;45.45;;
23434;SDS011;11890;45.380;11.028;2023-02-01T08:23:02;83.93;;;41.88;;
23434;SDS011;11890;45.380;11.028;2023-02-01T08:25:30;90.47;;;44.03;;
23434;SDS011;11890;45.380;11.028;2023-02-01T08:27:58;89.85;;;44.35;;
23434;SDS011;11890;45.380;11.028;2023-02-01T08:30:26;87.63;;;42.85;;
23434;SDS011;11890;45.380;11.028;2023-02-01T08:32:54;80.65;;;41.38;;
23434;SDS011;11890;45.380;11.028;2023-02-01T08:35:22;96.85;;;49.20;;
23434;SDS011;11890;45.380;11.028;2023-02-01T08:38:08;102.32;;;53.00;;
23434;SDS011;11890;45.380;11.028;2023-02-01T08:40:36;85.10;;;44.55;;
23434;SDS011;11890;45.380;11.028;2023-02-01T08:43:04;93.70;;;45.22;;
23434;SDS011;11890;45.380;11.028;2023-02-01T08:45:32;92.25;;;45.78;;
23434;SDS011;11890;45.380;11.028;2023-02-01T08:48:00;90.50;;;45.78;;
23434;SDS011;11890;45.380;11.028;2023-02-01T08:50:28;80.72;;;42.13;;
23434;SDS011;11890;45.380;11.028;2023-02-01T08:52:56;90.32;;;45.97;;
23434;SDS011;11890;45.380;11.028;2023-02-01T08:55:24;88.07;;;45.80;;
23434;SDS011;11890;45.380;11.028;2023-02-01T08:57:53;85.43;;;44.13;;
23434;SDS011;11890;45.380;11.028;2023-02-01T09:00:21;87.45;;;44.10;;
23434;SDS011;11890;45.380;11.028;2023-02-01T09:02:49;85.57;;;42.88;;
23434;SDS011;11890;45.380;11.028;2023-02-01T09:05:17;86.13;;;44.50;;
23434;SDS011;11890;45.380;11.028;2023-02-01T09:07:49;89.93;;;46.22;;
23434;SDS011;11890;45.380;11.028;2023-02-01T09:10:17;86.63;;;46.35;;
23434;SDS011;11890;45.380;11.028;2023-02-01T09:15:28;93.60;;;45.03;;
23434;SDS011;11890;45.380;11.028;2023-02-01T09:17:56;87.35;;;45.55;;
23434;SDS011;11890;45.380;11.028;2023-02-01T09:20:24;96.55;;;45.60;;
23434;SDS011;11890;45.380;11.028;2023-02-01T09:22:52;109.20;;;52.13;;
23434;SDS011;11890;45.380;11.028;2023-02-01T09:25:21;95.97;;;47.25;;
23434;SDS011;11890;45.380;11.028;2023-02-01T09:27:49;98.60;;;49.05;;
23434;SDS011;11890;45.380;11.028;2023-02-01T09:30:17;99.50;;;48.83;;
23434;SDS011;11890;45.380;11.028;2023-02-01T09:32:45;102.22;;;48.30;;
23434;SDS011;11890;45.380;11.028;2023-02-01T09:35:13;100.55;;;50.42;;
23434;SDS011;11890;45.380;11.028;2023-02-01T09:37:41;96.90;;;48.85;;
23434;SDS011;11890;45.380;11.028;2023-02-01T09:40:12;104.93;;;52.03;;
23434;SDS011;11890;45.380;11.028;2023-02-01T09:42:54;97.75;;;48.10;;
23434;SDS011;11890;45.380;11.028;2023-02-01T09:48:24;97.38;;;49.95;;
23434;SDS011;11890;45.380;11.028;2023-02-01T09:50:56;101.68;;;50.45;;
23434;SDS011;11890;45.380;11.028;2023-02-01T09:53:28;94.68;;;50.22;;
23434;SDS011;11890;45.380;11.028;2023-02-01T09:56:05;99.80;;;50.20;;
23434;SDS011;11890;45.380;11.028;2023-02-01T10:01:02;100.85;;;48.78;;
23434;SDS011;11890;45.380;11.028;2023-02-01T10:03:32;96.45;;;49.75;;
23434;SDS011;11890;45.380;11.028;2023-02-01T10:09:00;98.05;;;50.15;;
23434;SDS011;11890;45.380;11.028;2023-02-01T10:11:47;98.78;;;49.70;;
23434;SDS011;11890;45.380;11.028;2023-02-01T10:14:30;98.65;;;48.67;;
23434;SDS011;11890;45.380;11.028;2023-02-01T10:17:19;96.00;;;48.75;;
23434;SDS011;11890;45.380;11.028;2023-02-01T10:22:52;96.32;;;48.67;;
23434;SDS011;11890;45.380;11.028;2023-02-01T10:28:12;91.75;;;49.20;;
23434;SDS011;11890;45.380;11.028;2023-02-01T10:30:46;92.22;;;48.45;;
23434;SDS011;11890;45.380;11.028;2023-02-01T10:33:31;96.10;;;50.80;;
23434;SDS011;11890;45.380;11.028;2023-02-01T10:38:44;98.03;;;49.95;;
23434;SDS011;11890;45.380;11.028;2023-02-01T10:41:13;91.93;;;50.03;;
23434;SDS011;11890;45.380;11.028;2023-02-01T10:43:42;89.68;;;47.10;;
23434;SDS011;11890;45.380;11.028;2023-02-01T10:46:10;91.22;;;49.78;;
23434;SDS011;11890;45.380;11.028;2023-02-01T10:48:38;94.05;;;50.47;;
23434;SDS011;11890;45.380;11.028;2023-02-01T10:51:12;88.57;;;49.22;;
23434;SDS011;11890;45.380;11.028;2023-02-01T10:56:10;86.53;;;49.22;;
23434;SDS011;11890;45.380;11.028;2023-02-01T10:58:43;94.28;;;48.85;;
23434;SDS011;11890;45.380;11.028;2023-02-01T11:01:18;91.87;;;49.43;;
23434;SDS011;11890;45.380;11.028;2023-02-01T11:03:53;92.15;;;49.63;;
23434;SDS011;11890;45.380;11.028;2023-02-01T11:06:29;90.35;;;49.35;;
23434;SDS011;11890;45.380;11.028;2023-02-01T11:08:58;86.88;;;49.08;;
23434;SDS011;11890;45.380;11.028;2023-02-01T11:11:27;89.03;;;49.03;;
23434;SDS011;11890;45.380;11.028;2023-02-01T11:13:57;90.30;;;49.78;;
23434;SDS011;11890;45.380;11.028;2023-02-01T11:16:47;109.78;;;62.25;;
23434;SDS011;11890;45.380;11.028;2023-02-01T11:19:16;90.15;;;48.80;;
23434;SDS011;11890;45.380;11.028;2023-02-01T11:21:44;93.57;;;48.30;;
23434;SDS011;11890;45.380;11.028;2023-02-01T11:24:22;88.07;;;49.15;;
23434;SDS011;11890;45.380;11.028;2023-02-01T11:26:54;89.13;;;48.33;;
23434;SDS011;11890;45.380;11.028;2023-02-01T11:29:22;87.53;;;48.75;;
23434;SDS011;11890;45.380;11.028;2023-02-01T11:31:57;101.00;;;56.00;;
23434;SDS011;11890;45.380;11.028;2023-02-01T11:34:36;104.35;;;56.10;;
23434;SDS011;11890;45.380;11.028;2023-02-01T11:37:04;84.10;;;48.85;;
23434;SDS011;11890;45.380;11.028;2023-02-01T11:39:41;82.38;;;47.72;;
23434;SDS011;11890;45.380;11.028;2023-02-01T11:42:13;87.15;;;45.70;;
23434;SDS011;11890;45.380;11.028;2023-02-01T11:44:43;89.45;;;49.13;;
23434;SDS011;11890;45.380;11.028;2023-02-01T11:49:55;89.07;;;48.58;;
23434;SDS011;11890;45.380;11.028;2023-02-01T11:55:16;85.88;;;47.90;;
23434;SDS011;11890;45.380;11.028;2023-02-01T12:10:52;92.53;;;50.75;;
23434;SDS011;11890;45.380;11.028;2023-02-01T12:16:19;95.78;;;51.20;;
23434;SDS011;11890;45.380;11.028;2023-02-01T12:23:58;85.22;;;47.95;;
23434;SDS011;11890;45.380;11.028;2023-02-01T12:37:34;87.00;;;48.55;;
23434;SDS011;11890;45.380;11.028;2023-02-01T12:42:43;89.43;;;49.40;;
23434;SDS011;11890;45.380;11.028;2023-02-01T12:45:20;94.70;;;51.45;;
23434;SDS011;11890;45.380;11.028;2023-02-01T12:47:57;82.68;;;47.70;;
23434;SDS011;11890;45.380;11.028;2023-02-01T12:50:42;85.13;;;48.30;;
23434;SDS011;11890;45.380;11.028;2023-02-01T12:53:32;93.20;;;49.70;;
23434;SDS011;11890;45.380;11.028;2023-02-01T12:56:03;85.10;;;47.55;;
23434;SDS011;11890;45.380;11.028;2023-02-01T12:58:41;83.93;;;47.20;;
23434;SDS011;11890;45.380;11.028;2023-02-01T13:01:30;83.63;;;47.72;;
23434;SDS011;11890;45.380;11.028;2023-02-01T13:04:05;86.50;;;48.63;;
23434;SDS011;11890;45.380;11.028;2023-02-01T13:06:42;92.15;;;49.38;;
23434;SDS011;11890;45.380;11.028;2023-02-01T13:09:27;78.40;;;46.22;;
23434;SDS011;11890;45.380;11.028;2023-02-01T13:12:00;82.00;;;46.58;;
23434;SDS011;11890;45.380;11.028;2023-02-01T13:14:38;78.40;;;46.95;;
23434;SDS011;11890;45.380;11.028;2023-02-01T13:22:12;84.78;;;48.25;;
23434;SDS011;11890;45.380;11.028;2023-02-01T13:27:15;81.50;;;47.92;;
23434;SDS011;11890;45.380;11.028;2023-02-01T13:29:58;84.90;;;48.47;;
23434;SDS011;11890;45.380;11.028;2023-02-01T13:40:29;77.20;;;46.47;;
23434;SDS011;11890;45.380;11.028;2023-02-01T13:43:00;83.65;;;47.95;;
23434;SDS011;11890;45.380;11.028;2023-02-01T13:45:30;80.40;;;46.55;;
23434;SDS011;11890;45.380;11.028;2023-02-01T13:48:00;90.55;;;49.35;;
23434;SDS011;11890;45.380;11.028;2023-02-01T13:55:45;83.72;;;48.10;;
23434;SDS011;11890;45.380;11.028;2023-02-01T13:58:30;82.22;;;47.58;;
23434;SDS011;11890;45.380;11.028;2023-02-01T14:03:46;86.97;;;48.15;;
23434;SDS011;11890;45.380;11.028;2023-02-01T14:06:16;89.22;;;49.22;;
23434;SDS011;11890;45.380;11.028;2023-02-01T14:08:44;92.80;;;48.80;;
23434;SDS011;11890;45.380;11.028;2023-02-01T14:11:36;89.30;;;47.47;;
23434;SDS011;11890;45.380;11.028;2023-02-01T14:14:48;89.75;;;46.85;;
23434;SDS011;11890;45.380;11.028;2023-02-01T14:21:56;92.78;;;48.92;;
23434;SDS011;11890;45.380;11.028;2023-02-01T14:24:28;84.47;;;48.83;;
23434;SDS011;11890;45.380;11.028;2023-02-01T14:26:58;87.20;;;48.15;;
23434;SDS011;11890;45.380;11.028;2023-02-01T14:29:30;87.82;;;46.97;;
23434;SDS011;11890;45.380;11.028;2023-02-01T14:42:43;81.00;;;44.20;;
23434;SDS011;11890;45.380;11.028;2023-02-01T14:47:46;84.88;;;44.63;;
23434;SDS011;11890;45.380;11.028;2023-02-01T14:55:16;89.00;;;47.60;;
23434;SDS011;11890;45.380;11.028;2023-02-01T14:57:46;87.38;;;47.83;;
23434;SDS011;11890;45.380;11.028;2023-02-01T15:00:16;91.32;;;49.38;;
23434;SDS011;11890;45.380;11.028;2023-02-01T15:02:45;88.85;;;48.70;;
23434;SDS011;11890;45.380;11.028;2023-02-01T15:07:51;87.97;;;48.28;;
23434;SDS011;11890;45.380;11.028;2023-02-01T15:10:19;84.38;;;47.40;;
23434;SDS011;11890;45.380;11.028;2023-02-01T15:12:48;86.55;;;46.08;;
23434;SDS011;11890;45.380;11.028;2023-02-01T15:17:52;86.65;;;48.58;;
23434;SDS011;11890;45.380;11.028;2023-02-01T15:20:27;81.20;;;45.67;;
23434;SDS011;11890;45.380;11.028;2023-02-01T15:22:58;90.80;;;48.35;;
23434;SDS011;11890;45.380;11.028;2023-02-01T15:25:27;83.82;;;46.05;;
23434;SDS011;11890;45.380;11.028;2023-02-01T15:27:55;86.40;;;48.25;;
23434;SDS011;11890;45.380;11.028;2023-02-01T15:30:28;83.72;;;46.30;;
23434;SDS011;11890;45.380;11.028;2023-02-01T15:33:06;86.13;;;46.80;;
23434;SDS011;11890;45.380;11.028;2023-02-01T15:46:38;80.03;;;46.05;;
23434;SDS011;11890;45.380;11.028;2023-02-01T15:49:23;83.78;;;45.75;;
23434;SDS011;11890;45.380;11.028;2023-02-01T15:51:52;90.65;;;46.90;;
23434;SDS011;11890;45.380;11.028;2023-02-01T15:54:28;91.07;;;49.05;;
23434;SDS011;11890;45.380;11.028;2023-02-01T15:56:58;95.55;;;50.47;;
23434;SDS011;11890;45.380;11.028;2023-02-01T15:59:32;100.88;;;54.03;;
23434;SDS011;11890;45.380;11.028;2023-02-01T16:02:03;112.45;;;57.50;;
23434;SDS011;11890;45.380;11.028;2023-02-01T16:04:31;110.35;;;57.13;;
23434;SDS011;11890;45.380;11.028;2023-02-01T16:07:00;101.47;;;55.13;;
23434;SDS011;11890;45.380;11.028;2023-02-01T16:12:20;110.43;;;55.97;;
23434;SDS011;11890;45.380;11.028;2023-02-01T16:14:50;110.90;;;59.22;;
23434;SDS011;11890;45.380;11.028;2023-02-01T16:17:20;107.68;;;55.30;;
23434;SDS011;11890;45.380;11.028;2023-02-01T16:19:48;96.65;;;53.42;;
23434;SDS011;11890;45.380;11.028;2023-02-01T16:22:16;93.75;;;50.60;;
23434;SDS011;11890;45.380;11.028;2023-02-01T16:24:52;104.93;;;57.33;;
23434;SDS011;11890;45.380;11.028;2023-02-01T16:27:28;103.22;;;51.13;;
23434;SDS011;11890;45.380;11.028;2023-02-01T16:29:56;90.40;;;48.30;;
23434;SDS011;11890;45.380;11.028;2023-02-01T16:32:25;95.13;;;49.90;;
23434;SDS011;11890;45.380;11.028;2023-02-01T16:34:53;98.25;;;51.08;;
23434;SDS011;11890;45.380;11.028;2023-02-01T16:37:23;103.43;;;52.80;;
23434;SDS011;11890;45.380;11.028;2023-02-01T16:39:51;100.93;;;52.97;;
23434;SDS011;11890;45.380;11.028;2023-02-01T16:42:19;112.93;;;56.08;;
23434;SDS011;11890;45.380;11.028;2023-02-01T16:44:47;149.75;;;67.70;;
23434;SDS011;11890;45.380;11.028;2023-02-01T16:47:20;130.77;;;64.25;;
23434;SDS011;11890;45.380;11.028;2023-02-01T16:49:49;141.65;;;65.35;;
23434;SDS011;11890;45.380;11.028;2023-02-01T16:52:19;128.13;;;64.68;;
23434;SDS011;11890;45.380;11.028;2023-02-01T16:54:47;184.07;;;99.00;;
23434;SDS011;11890;45.380;11.028;2023-02-01T16:57:16;133.90;;;69.28;;
23434;SDS011;11890;45.380;11.028;2023-02-01T16:59:45;136.85;;;67.28;;
23434;SDS011;11890;45.380;11.028;2023-02-01T17:02:17;126.93;;;65.93;;
23434;SDS011;11890;45.380;11.028;2023-02-01T17:04:49;131.43;;;70.35;;
23434;SDS011;11890;45.380;11.028;2023-02-01T17:07:18;125.53;;;66.18;;
23434;SDS011;11890;45.380;11.028;2023-02-01T17:09:46;129.10;;;63.20;;
23434;SDS011;11890;45.380;11.028;2023-02-01T17:12:27;138.10;;;65.32;;
23434;SDS011;11890;45.380;11.028;2023-02-01T17:14:59;128.15;;;63.30;;
23434;SDS011;11890;45.380;11.028;2023-02-01T17:17:36;112.38;;;57.75;;
23434;SDS011;11890;45.380;11.028;2023-02-01T17:20:26;122.70;;;55.42;;
23434;SDS011;11890;45.380;11.028;2023-02-01T17:23:11;113.18;;;54.63;;
23434;SDS011;11890;45.380;11.028;2023-02-01T17:25:44;80.30;;;41.63;;
23434;SDS011;11890;45.380;11.028;2023-02-01T17:28:24;103.43;;;53.85;;